createdAt,value
2022-10-17T00:02:01.305Z,13.32
2022-10-17T00:04:27.921Z,12.85
2022-10-17T00:06:54.455Z,11.73
2022-10-17T00:09:21.009Z,13.20
2022-10-17T00:11:47.526Z,13.38
2022-10-17T00:14:14.060Z,11.95
2022-10-17T00:16:40.618Z,12.60
2022-10-17T00:19:07.491Z,12.03
2022-10-17T00:21:34.144Z,12.25
2022-10-17T00:24:01.351Z,12.55
2022-10-17T00:26:30.939Z,13.48
2022-10-17T00:28:57.579Z,12.65
2022-10-17T00:31:24.591Z,13.70
2022-10-17T00:33:52.285Z,13.15
2022-10-17T00:36:21.658Z,12.77
2022-10-17T00:38:51.735Z,12.35
2022-10-17T00:41:21.492Z,11.98
2022-10-17T00:44:02.249Z,12.30
2022-10-17T00:46:34.526Z,13.75
2022-10-17T00:49:09.962Z,12.48
2022-10-17T00:51:45.157Z,12.43
2022-10-17T00:54:14.483Z,13.40
2022-10-17T00:56:41.708Z,11.00
2022-10-17T00:59:10.842Z,12.65
2022-10-17T01:01:37.534Z,11.75
2022-10-17T01:04:04.340Z,12.32
2022-10-17T01:06:30.967Z,12.65
2022-10-17T01:08:57.606Z,11.73
2022-10-17T01:12:06.324Z,12.80
2022-10-17T01:14:45.087Z,11.70
2022-10-17T01:17:36.259Z,13.18
2022-10-17T01:20:05.775Z,14.50
2022-10-17T01:22:55.281Z,12.13
2022-10-17T01:25:59.710Z,14.63
2022-10-17T01:29:04.335Z,11.65
2022-10-17T01:31:36.698Z,13.75
2022-10-17T01:34:29.578Z,12.88
2022-10-17T01:37:14.728Z,12.73
2022-10-17T01:39:50.668Z,12.63
2022-10-17T01:42:25.004Z,14.07
2022-10-17T01:45:10.340Z,12.73
2022-10-17T01:47:38.499Z,12.35
2022-10-17T01:50:10.723Z,10.90
2022-10-17T01:52:43.068Z,12.40
2022-10-17T01:55:16.585Z,11.93
2022-10-17T01:57:49.375Z,11.15
2022-10-17T02:00:20.764Z,11.48
2022-10-17T02:02:49.477Z,9.30
2022-10-17T02:05:18.816Z,11.73
2022-10-17T02:07:45.286Z,10.82
2022-10-17T02:10:32.629Z,10.32
2022-10-17T02:13:28.096Z,12.13
2022-10-17T02:16:05.257Z,10.07
2022-10-17T02:18:44.270Z,10.88
2022-10-17T02:21:20.972Z,9.95
2022-10-17T02:23:55.042Z,9.40
2022-10-17T02:26:28.264Z,12.05
2022-10-17T02:28:54.740Z,9.07
2022-10-17T02:31:31.051Z,10.48
2022-10-17T02:34:29.739Z,9.18
2022-10-17T02:36:59.886Z,12.60
2022-10-17T02:39:28.658Z,9.65
2022-10-17T02:41:58.289Z,9.13
2022-10-17T02:44:26.391Z,10.35
2022-10-17T02:47:23.625Z,9.15
2022-10-17T02:49:56.294Z,9.43
2022-10-17T02:52:31.296Z,8.35
2022-10-17T02:55:03.866Z,9.27
2022-10-17T02:57:44.784Z,8.95
2022-10-17T03:00:14.295Z,9.43
2022-10-17T03:02:47.475Z,10.10
2022-10-17T03:05:18.730Z,8.40
2022-10-17T03:07:45.271Z,8.90
2022-10-17T03:10:11.896Z,9.73
2022-10-17T03:12:38.467Z,10.00
2022-10-17T03:15:06.158Z,9.32
2022-10-17T03:17:33.451Z,9.48
2022-10-17T03:19:59.992Z,8.47
2022-10-17T03:22:26.758Z,10.25
2022-10-17T03:24:53.455Z,9.38
2022-10-17T03:27:19.938Z,11.05
2022-10-17T03:29:46.394Z,9.60
2022-10-17T03:32:12.964Z,9.97
2022-10-17T03:34:39.449Z,8.95
2022-10-17T03:37:05.937Z,9.90
2022-10-17T03:39:32.500Z,8.73
2022-10-17T03:41:59.022Z,9.73
2022-10-17T03:44:25.487Z,9.37
2022-10-17T03:46:52.000Z,9.60
2022-10-17T03:49:18.504Z,10.45
2022-10-17T03:51:44.981Z,8.13
2022-10-17T03:54:11.484Z,10.05
2022-10-17T03:56:38.144Z,9.83
2022-10-17T03:59:05.049Z,8.60
2022-10-17T04:01:32.029Z,8.68
2022-10-17T04:03:58.695Z,9.77
2022-10-17T04:06:25.247Z,11.07
2022-10-17T04:08:51.936Z,8.57
2022-10-17T04:11:21.038Z,9.18
2022-10-17T04:13:47.820Z,9.45
2022-10-17T04:16:16.955Z,11.35
2022-10-17T04:18:44.582Z,10.88
2022-10-17T04:21:12.238Z,9.73
2022-10-17T04:23:39.579Z,10.23
2022-10-17T04:26:06.873Z,9.55
2022-10-17T04:28:34.229Z,10.30
2022-10-17T04:31:09.710Z,12.20
2022-10-17T04:33:36.211Z,12.07
2022-10-17T04:36:08.189Z,12.68
2022-10-17T04:38:34.728Z,10.50
2022-10-17T04:41:04.063Z,10.07
2022-10-17T04:43:35.659Z,11.57
2022-10-17T04:46:05.446Z,10.63
2022-10-17T04:48:32.284Z,11.27
2022-10-17T04:51:04.101Z,11.73
2022-10-17T04:53:31.823Z,13.18
2022-10-17T04:55:58.339Z,12.77
2022-10-17T04:58:24.917Z,12.53
2022-10-17T05:00:51.473Z,11.63
2022-10-17T05:03:18.082Z,13.48
2022-10-17T05:05:44.684Z,12.32
2022-10-17T05:08:12.650Z,14.75
2022-10-17T05:10:41.867Z,13.87
2022-10-17T05:13:09.584Z,14.27
2022-10-17T05:15:37.048Z,28.15
2022-10-17T05:18:04.606Z,14.25
2022-10-17T05:20:31.758Z,17.05
2022-10-17T05:23:02.197Z,19.43
2022-10-17T05:25:28.719Z,14.95
2022-10-17T05:27:55.358Z,13.00
2022-10-17T05:30:22.040Z,14.10
2022-10-17T05:32:51.502Z,15.88
2022-10-17T05:35:17.976Z,14.20
2022-10-17T05:37:44.478Z,15.93
2022-10-17T05:40:11.296Z,13.95
2022-10-17T05:42:37.779Z,18.05
2022-10-17T05:45:04.844Z,16.23
2022-10-17T05:47:32.015Z,13.80
2022-10-17T05:49:58.805Z,14.00
2022-10-17T05:52:25.373Z,14.32
2022-10-17T05:54:53.027Z,15.40
2022-10-17T05:57:19.558Z,15.23
2022-10-17T05:59:46.086Z,14.50
2022-10-17T06:02:13.383Z,14.20
2022-10-17T06:04:45.308Z,16.38
2022-10-17T06:07:13.091Z,14.88
2022-10-17T06:09:40.081Z,16.05
2022-10-17T06:12:08.398Z,15.30
2022-10-17T06:14:35.320Z,16.77
2022-10-17T06:17:02.097Z,17.00
2022-10-17T06:19:28.734Z,16.77
2022-10-17T06:21:55.258Z,16.10
2022-10-17T06:24:22.010Z,17.30
2022-10-17T06:26:49.845Z,16.33
2022-10-17T06:29:16.703Z,14.82
2022-10-17T06:31:43.354Z,14.68
2022-10-17T06:34:09.907Z,16.02
2022-10-17T06:36:36.574Z,15.93
2022-10-17T06:39:03.572Z,14.13
2022-10-17T06:41:30.243Z,14.27
2022-10-17T06:43:56.742Z,13.32
2022-10-17T06:46:26.680Z,13.73
2022-10-17T06:48:53.401Z,15.07
2022-10-17T06:51:19.894Z,14.88
2022-10-17T06:53:47.078Z,13.70
2022-10-17T06:56:13.609Z,13.65
2022-10-17T06:58:40.704Z,13.82
2022-10-17T07:01:13.029Z,11.47
2022-10-17T07:03:40.830Z,13.65
2022-10-17T07:06:07.947Z,13.98
2022-10-17T07:08:34.463Z,13.32
2022-10-17T07:11:09.518Z,11.68
2022-10-17T07:13:39.113Z,13.70
2022-10-17T07:16:06.777Z,12.52
2022-10-17T07:18:33.404Z,11.57
2022-10-17T07:21:00.039Z,12.18
2022-10-17T07:23:26.936Z,12.02
2022-10-17T07:25:53.526Z,14.80
2022-10-17T07:28:20.056Z,11.02
2022-10-17T07:30:50.598Z,15.38
2022-10-17T07:33:20.257Z,11.35
2022-10-17T07:35:46.897Z,10.75
2022-10-17T07:38:13.311Z,11.60
2022-10-17T07:40:39.807Z,11.32
2022-10-17T07:43:06.633Z,10.90
2022-10-17T07:45:33.211Z,11.07
2022-10-17T07:47:59.767Z,10.30
2022-10-17T07:50:26.359Z,10.60
2022-10-17T07:52:52.879Z,10.50
2022-10-17T07:55:19.397Z,9.65
2022-10-17T07:57:45.979Z,12.05
2022-10-17T08:00:12.855Z,10.52
2022-10-17T08:02:39.563Z,8.03
2022-10-17T08:05:06.526Z,10.13
2022-10-17T08:07:33.047Z,12.32
2022-10-17T08:09:59.753Z,8.18
2022-10-17T08:12:26.463Z,11.23
2022-10-17T08:14:53.080Z,10.43
2022-10-17T08:17:19.542Z,9.55
2022-10-17T08:19:46.051Z,9.23
2022-10-17T08:22:12.601Z,11.45
2022-10-17T08:24:39.095Z,7.43
2022-10-17T08:27:11.326Z,9.70
2022-10-17T08:29:39.113Z,7.20
2022-10-17T08:32:09.568Z,10.57
2022-10-17T08:34:36.483Z,7.70
2022-10-17T08:37:03.350Z,7.55
2022-10-17T08:39:29.886Z,7.87
2022-10-17T08:42:02.332Z,8.55
2022-10-17T08:44:31.856Z,7.47
2022-10-17T08:47:01.848Z,8.48
2022-10-17T08:49:43.399Z,10.90
2022-10-17T08:52:38.833Z,7.20
2022-10-17T08:55:16.812Z,7.30
2022-10-17T08:57:44.373Z,8.52
2022-10-17T09:00:18.049Z,7.68
2022-10-17T09:03:12.476Z,10.27
2022-10-17T09:06:10.910Z,8.33
2022-10-17T09:08:43.312Z,7.22
2022-10-17T09:11:41.846Z,9.30
2022-10-17T09:14:16.187Z,6.70
2022-10-17T09:16:48.475Z,9.65
2022-10-17T09:19:33.486Z,9.13
2022-10-17T09:22:06.378Z,8.15
2022-10-17T09:24:44.383Z,8.55
2022-10-17T09:27:22.470Z,8.82
2022-10-17T09:29:52.866Z,7.80
2022-10-17T09:32:23.784Z,9.63
2022-10-17T09:34:52.568Z,6.88
2022-10-17T09:37:21.075Z,8.10
2022-10-17T09:39:47.922Z,10.43
2022-10-17T09:42:19.289Z,9.23
2022-10-17T09:45:04.624Z,7.27
2022-10-17T09:47:57.549Z,12.10
2022-10-17T09:50:32.535Z,8.25
2022-10-17T09:53:10.748Z,7.57
2022-10-17T09:55:43.534Z,6.90
2022-10-17T09:58:12.021Z,8.27
2022-10-17T10:00:41.677Z,7.78
2022-10-17T10:03:28.893Z,7.32
2022-10-17T10:06:20.434Z,7.25
2022-10-17T10:08:55.426Z,8.23
2022-10-17T10:11:43.970Z,7.57
2022-10-17T10:14:22.374Z,6.53
2022-10-17T10:16:49.973Z,7.03
2022-10-17T10:19:30.972Z,7.82
2022-10-17T10:21:59.806Z,9.50
2022-10-17T10:24:31.218Z,10.00
2022-10-17T10:27:01.772Z,8.38
2022-10-17T10:29:39.762Z,8.27
2022-10-17T10:32:16.362Z,6.82
2022-10-17T10:34:50.611Z,8.23
2022-10-17T10:37:21.529Z,7.33
2022-10-17T10:39:54.568Z,9.82
2022-10-17T10:42:36.390Z,8.77
2022-10-17T10:45:19.137Z,7.43
2022-10-17T10:48:00.259Z,6.68
2022-10-17T10:50:31.377Z,9.50
2022-10-17T10:53:13.812Z,9.70
2022-10-17T10:55:47.728Z,8.13
2022-10-17T10:58:26.126Z,8.25
2022-10-17T11:00:55.198Z,8.35
2022-10-17T11:03:29.098Z,8.87
2022-10-17T11:06:04.313Z,7.10
2022-10-17T11:08:52.586Z,7.82
2022-10-17T11:11:34.434Z,6.78
2022-10-17T11:14:13.744Z,7.18
2022-10-17T11:16:49.332Z,7.80
2022-10-17T11:19:24.395Z,7.22
2022-10-17T11:22:07.367Z,7.53
2022-10-17T11:24:56.847Z,8.43
2022-10-17T11:27:24.757Z,8.65
2022-10-17T11:29:51.745Z,7.00
2022-10-17T11:32:34.192Z,6.25
2022-10-17T11:35:08.207Z,6.15
2022-10-17T11:37:40.890Z,7.68
2022-10-17T11:40:25.722Z,8.52
2022-10-17T11:43:00.845Z,11.80
2022-10-17T11:45:33.908Z,10.32
2022-10-17T11:48:10.214Z,7.07
2022-10-17T11:53:51.453Z,7.47
2022-10-17T11:56:26.779Z,7.47
2022-10-17T11:59:28.324Z,7.32
2022-10-17T12:02:01.508Z,6.90
2022-10-17T12:04:49.458Z,7.97
2022-10-17T12:07:48.163Z,6.75
2022-10-17T12:10:20.724Z,6.80
2022-10-17T12:12:48.194Z,5.90
2022-10-17T12:15:20.654Z,9.70
2022-10-17T12:17:56.070Z,6.30
2022-10-17T12:20:25.311Z,8.10
2022-10-17T12:22:56.186Z,10.03
2022-10-17T12:25:30.139Z,6.47
2022-10-17T12:28:15.965Z,7.78
2022-10-17T12:30:54.855Z,7.63
2022-10-17T12:33:23.891Z,8.02
2022-10-17T12:35:52.032Z,6.10
2022-10-17T12:38:18.550Z,8.27
2022-10-17T12:40:49.106Z,7.93
2022-10-17T12:43:15.623Z,8.38
2022-10-17T12:45:51.907Z,6.90
2022-10-17T12:48:36.513Z,6.63
2022-10-17T12:51:36.098Z,8.85
2022-10-17T12:54:12.743Z,8.98
2022-10-17T12:56:42.847Z,8.02
2022-10-17T12:59:15.799Z,7.70
2022-10-17T13:01:47.431Z,8.10
2022-10-17T13:04:14.867Z,9.93
2022-10-17T13:07:01.245Z,7.60
2022-10-17T13:09:33.189Z,9.05
2022-10-17T13:12:02.936Z,9.60
2022-10-17T13:14:31.563Z,7.90
2022-10-17T13:17:04.815Z,7.63
2022-10-17T13:19:43.712Z,8.88
2022-10-17T13:22:16.418Z,7.63
2022-10-17T13:24:43.126Z,7.18
2022-10-17T13:27:30.750Z,8.60
2022-10-17T13:29:58.969Z,8.52
2022-10-17T13:32:27.152Z,8.43
2022-10-17T13:35:07.598Z,6.90
2022-10-17T13:37:35.313Z,9.38
2022-10-17T13:40:17.524Z,8.33
2022-10-17T13:42:50.854Z,10.82
2022-10-17T13:45:38.548Z,7.88
2022-10-17T13:48:17.071Z,9.68
2022-10-17T13:50:45.043Z,7.25
2022-10-17T13:53:34.125Z,6.10
2022-10-17T13:56:27.739Z,9.25
2022-10-17T13:58:59.118Z,7.25
2022-10-17T14:01:28.504Z,6.38
2022-10-17T14:04:07.962Z,9.32
2022-10-17T14:06:44.971Z,11.17
2022-10-17T14:09:32.730Z,10.98
2022-10-17T14:12:10.970Z,9.18
2022-10-17T14:14:58.378Z,8.07
2022-10-17T14:17:28.607Z,7.15
2022-10-17T14:20:14.147Z,7.07
2022-10-17T14:22:50.571Z,6.85
2022-10-17T14:25:39.388Z,6.65
2022-10-17T14:28:12.630Z,7.63
2022-10-17T14:30:56.158Z,9.55
2022-10-17T14:33:31.556Z,7.07
2022-10-17T14:36:00.506Z,6.18
2022-10-17T14:38:29.053Z,7.53
2022-10-17T14:41:42.305Z,6.43
2022-10-17T14:44:19.303Z,8.63
2022-10-17T14:46:50.723Z,6.97
2022-10-17T14:49:25.002Z,7.85
2022-10-17T14:52:29.210Z,6.25
2022-10-17T14:54:58.116Z,6.57
2022-10-17T14:57:40.822Z,8.60
2022-10-17T15:00:07.865Z,8.97
2022-10-17T15:02:34.882Z,7.68
2022-10-17T15:05:01.496Z,6.70
2022-10-17T15:07:28.275Z,6.97
2022-10-17T15:09:54.848Z,9.05
2022-10-17T15:12:24.714Z,10.13
2022-10-17T15:14:52.203Z,9.13
2022-10-17T15:17:26.070Z,6.53
2022-10-17T15:19:53.118Z,6.95
2022-10-17T15:22:19.738Z,8.73
2022-10-17T15:24:46.910Z,7.50
2022-10-17T15:27:19.285Z,8.60
2022-10-17T15:29:46.411Z,8.45
2022-10-17T15:32:13.544Z,6.13
2022-10-17T15:34:40.540Z,7.10
2022-10-17T15:37:23.941Z,9.73
2022-10-17T15:39:54.072Z,8.77
2022-10-17T15:42:22.252Z,10.13
2022-10-17T15:44:49.793Z,7.50
2022-10-17T15:47:25.614Z,6.90
2022-10-17T15:49:52.213Z,9.67
2022-10-17T15:52:19.168Z,8.73
2022-10-17T15:54:45.790Z,7.13
2022-10-17T15:57:27.513Z,7.68
2022-10-17T15:59:55.450Z,9.18
2022-10-17T16:02:23.414Z,9.53
2022-10-17T16:04:51.413Z,8.57
2022-10-17T16:07:19.332Z,8.48
2022-10-17T16:09:46.441Z,11.30
2022-10-17T16:12:16.781Z,8.20
2022-10-17T16:14:43.321Z,6.87
2022-10-17T16:17:13.911Z,9.10
2022-10-17T16:19:40.545Z,7.40
2022-10-17T16:22:07.313Z,9.05
2022-10-17T16:24:33.815Z,8.38
2022-10-17T16:27:01.358Z,7.77
2022-10-17T16:29:27.910Z,8.18
2022-10-17T16:31:54.414Z,8.80
2022-10-17T16:34:20.868Z,7.95
2022-10-17T16:36:47.482Z,8.80
2022-10-17T16:39:14.173Z,10.53
2022-10-17T16:41:40.676Z,10.15
2022-10-17T16:44:10.533Z,10.80
2022-10-17T16:46:37.645Z,8.90
2022-10-17T16:49:05.447Z,9.25
2022-10-17T16:51:35.679Z,10.13
2022-10-17T16:54:02.805Z,9.25
2022-10-17T16:56:32.899Z,8.60
2022-10-17T16:59:00.829Z,11.50
2022-10-17T17:01:29.353Z,11.65
2022-10-17T17:03:56.001Z,11.77
2022-10-17T17:06:28.390Z,9.43
2022-10-17T17:08:55.985Z,10.55
2022-10-17T17:11:25.926Z,12.15
2022-10-17T17:13:55.652Z,19.95
2022-10-17T17:16:23.915Z,14.30
2022-10-17T17:18:55.220Z,13.77
2022-10-17T17:21:21.949Z,12.82
2022-10-17T17:23:48.487Z,11.73
2022-10-17T17:26:20.953Z,13.15
2022-10-17T17:28:48.604Z,12.67
2022-10-17T17:31:18.286Z,15.30
2022-10-17T17:33:48.466Z,12.70
2022-10-17T17:36:21.709Z,10.75
2022-10-17T17:38:49.498Z,9.70
2022-10-17T17:41:19.172Z,10.17
2022-10-17T17:43:46.834Z,11.30
2022-10-17T17:46:16.449Z,10.50
2022-10-17T17:48:44.066Z,11.73
2022-10-17T17:51:12.434Z,11.55
2022-10-17T17:53:39.631Z,14.60
2022-10-17T17:56:08.492Z,13.98
2022-10-17T17:58:35.477Z,12.60
2022-10-17T18:01:27.619Z,12.32
2022-10-17T18:03:55.457Z,17.55
2022-10-17T18:06:23.002Z,12.87
2022-10-17T18:08:52.118Z,11.93
2022-10-17T18:11:21.240Z,15.20
2022-10-17T18:13:53.865Z,11.95
2022-10-17T18:16:20.344Z,12.30
2022-10-17T18:18:46.898Z,10.27
2022-10-17T18:21:14.105Z,10.82
2022-10-17T18:23:42.233Z,10.93
2022-10-17T18:26:09.664Z,9.27
2022-10-17T18:28:37.972Z,10.65
2022-10-17T18:31:12.132Z,9.20
2022-10-17T18:33:39.369Z,11.98
2022-10-17T18:36:08.360Z,11.70
2022-10-17T18:38:35.253Z,11.77
2022-10-17T18:41:08.333Z,11.50
2022-10-17T18:43:36.683Z,12.93
2022-10-17T18:46:14.773Z,12.07
2022-10-17T18:48:44.326Z,11.05
2022-10-17T18:51:11.494Z,12.70
2022-10-17T18:53:42.571Z,11.73
2022-10-17T18:56:09.897Z,11.73
2022-10-17T18:58:37.323Z,13.68
2022-10-17T19:01:06.190Z,11.25
2022-10-17T19:03:32.801Z,12.52
2022-10-17T19:06:05.714Z,12.20
2022-10-17T19:08:32.173Z,11.50
2022-10-17T19:11:08.052Z,9.15
2022-10-17T19:13:35.312Z,11.02
2022-10-17T19:16:21.790Z,8.57
2022-10-17T19:18:56.114Z,10.50
2022-10-17T19:21:22.871Z,11.17
2022-10-17T19:23:54.710Z,10.60
2022-10-17T19:26:22.135Z,10.25
2022-10-17T19:28:52.011Z,11.30
2022-10-17T19:31:25.427Z,11.80
2022-10-17T19:33:53.418Z,9.13
2022-10-17T19:36:22.130Z,11.25
2022-10-17T19:38:49.229Z,11.68
2022-10-17T19:41:16.571Z,9.63
2022-10-17T19:43:44.138Z,9.68
2022-10-17T19:46:14.033Z,10.50
2022-10-17T19:48:40.993Z,14.68
2022-10-17T19:51:11.146Z,12.38
2022-10-17T19:53:37.722Z,12.60
2022-10-17T19:56:05.082Z,11.68
2022-10-17T19:58:33.598Z,10.77
2022-10-17T20:01:01.152Z,10.93
2022-10-17T20:03:28.646Z,11.20
2022-10-17T20:05:55.837Z,11.32
2022-10-17T20:08:22.540Z,9.73
2022-10-17T20:10:49.137Z,10.23
2022-10-17T20:13:15.807Z,9.18
2022-10-17T20:15:42.412Z,13.30
2022-10-17T20:18:08.953Z,11.63
2022-10-17T20:20:36.483Z,12.98
2022-10-17T20:23:04.329Z,12.80
2022-10-17T20:25:30.940Z,11.30
2022-10-17T20:27:58.254Z,10.50
2022-10-17T20:30:24.753Z,11.45
2022-10-17T20:32:55.203Z,12.30
2022-10-17T20:35:22.007Z,14.87
2022-10-17T20:37:48.536Z,10.25
2022-10-17T20:40:35.043Z,10.77
2022-10-17T20:43:01.925Z,10.20
2022-10-17T20:45:43.599Z,16.05
2022-10-17T20:48:15.660Z,12.43
2022-10-17T20:50:43.610Z,35.53
2022-10-17T20:53:35.604Z,12.30
2022-10-17T20:56:17.092Z,12.75
2022-10-17T20:58:43.549Z,10.77
2022-10-17T21:01:10.715Z,11.27
2022-10-17T21:03:40.963Z,11.85
2022-10-17T21:06:10.701Z,13.43
2022-10-17T21:08:37.474Z,13.15
2022-10-17T21:11:08.878Z,17.35
2022-10-17T21:13:35.447Z,15.03
2022-10-17T21:16:05.779Z,11.82
2022-10-17T21:18:32.264Z,15.00
2022-10-17T21:21:16.129Z,12.80
2022-10-17T21:23:44.435Z,12.95
2022-10-17T21:26:12.646Z,11.07
2022-10-17T21:28:40.773Z,11.40
2022-10-17T21:31:24.988Z,14.13
2022-10-17T21:33:54.016Z,18.05
2022-10-17T21:36:21.579Z,14.75
2022-10-17T21:38:50.527Z,14.27
2022-10-17T21:41:22.088Z,17.85
2022-10-17T21:43:52.845Z,15.65
2022-10-17T21:46:19.936Z,15.27
2022-10-17T21:48:47.908Z,17.38
2022-10-17T21:51:17.387Z,17.63
2022-10-17T21:53:44.134Z,16.92
2022-10-17T21:56:20.712Z,15.60
2022-10-17T21:58:48.043Z,15.90
2022-10-17T22:01:20.282Z,21.23
2022-10-17T22:03:53.857Z,17.30
2022-10-17T22:06:39.123Z,17.52
2022-10-17T22:09:08.992Z,18.58
2022-10-17T22:11:35.594Z,16.70
2022-10-17T22:14:08.243Z,17.17
2022-10-17T22:16:35.094Z,14.83
2022-10-17T22:19:06.203Z,16.63
2022-10-17T22:21:34.627Z,18.90
2022-10-17T22:24:03.806Z,15.48
2022-10-17T22:26:31.848Z,14.82
2022-10-17T22:28:58.479Z,14.20
2022-10-17T22:31:25.158Z,13.88
2022-10-17T22:33:51.742Z,14.60
2022-10-17T22:36:19.528Z,15.68
2022-10-17T22:38:46.156Z,13.27
2022-10-17T22:41:12.666Z,12.97
2022-10-17T22:43:39.190Z,13.30
2022-10-17T22:46:06.777Z,13.27
2022-10-17T22:48:33.985Z,15.38
2022-10-17T22:51:02.030Z,12.43
2022-10-17T22:53:29.961Z,16.37
2022-10-17T22:56:00.616Z,13.30
2022-10-17T22:58:29.097Z,14.35
2022-10-17T23:00:56.575Z,12.18
2022-10-17T23:03:24.617Z,12.95
2022-10-17T23:05:51.404Z,14.40
2022-10-17T23:08:18.277Z,14.30
2022-10-17T23:10:45.681Z,12.30
2022-10-17T23:13:12.228Z,12.40
2022-10-17T23:15:38.772Z,12.93
2022-10-17T23:18:05.581Z,12.00
2022-10-17T23:20:32.406Z,13.13
2022-10-17T23:22:59.230Z,11.65
2022-10-17T23:25:26.815Z,12.30
2022-10-17T23:27:53.514Z,13.02
2022-10-17T23:30:20.357Z,11.20
2022-10-17T23:32:46.856Z,11.90
2022-10-17T23:35:13.583Z,12.63
2022-10-17T23:37:40.077Z,15.20
2022-10-17T23:40:07.760Z,14.98
2022-10-17T23:42:34.230Z,13.90
2022-10-17T23:45:00.801Z,12.32
2022-10-17T23:47:27.416Z,13.40
2022-10-17T23:49:54.019Z,13.70
2022-10-17T23:52:20.461Z,12.75
2022-10-17T23:54:46.982Z,13.60
2022-10-17T23:57:13.930Z,13.93
2022-10-17T23:59:40.580Z,13.55
